Relevés horaires Schaffen (Belgique)


Relevés horaires à Schaffen - Dimanche 06 Mars 2022
Heure UTC1 Température [°C] Vent [km/h] Hum. [%] Pres.4 [hPa] Visi. [Km] Nébu. [octa] Préc.5 [mm] Cond.
2m. Res. Ros. Dir.2 Vit. Moy. Raf.3
23:00 -0.1 -0.1 -5.4 NE 3.7 -- 5.6 67 1027.2(0.4/3h) 20 -- -- --
22:00 0.6 0.6 -5.4 NE 3.7 -- 9.3 64 1027.2(0.8/3h) 20 -- -- --
21:00 0.8 -0.9 -5.4 NE 5.6 -- 9.3 63 1027(1.0/3h) 20 -- -- --
20:00 0.6 -1.8 -5.2 NNE 7.4 -- 9.3 65 1026.7(1.3/3h) 20 -- -- --
19:00 1.0 -0.7 -5.1 N 5.6 -- 9.3 64 1026.5(0.9/3h) 20 -- -- --
18:00 2.1 0.5 -5.4 NE 5.6 -- 20.4 57 1026(0.4/3h) 20 -- -- --
17:00 4.4 2.6 -5.0 NE 7.4 -- 16.7 50 1025.4(-0.2/3h) 20 -- -- --
16:00 5.0 2.4 -5.1 NE 11.1 -- 20.4 48 1025.4(-0.1/3h) 20 -- -- --
15:00 6.0 4 -4.5 NNE 9.3 -- 18.5 47 1025.4(-0.5/3h) 18 -- -- --
14:00 6.3 3.7 -4.4 NNE 13.0 -- 18.5 46 1025.5(-0.8/3h) 20 -- -- --
13:00 6.4 4.9 -3.9 NNE 7.4 -- 14.8 48 1025.5(-0.7/3h) 18 -- -- --
12:00 5.8 4.8 -4.1 NE 5.6 -- 13.0 49 1026(-0.1/3h) 19 -- -- --
11:00 4.9 3.7 -3.2 NNE 5.6 -- 11.1 56 1026.4(0.6/3h) 19 -- -- --
10:00 3.1 1.7 -2.5 NNE 5.6 -- 11.1 67 1026.4(1.0/3h) 13 -- -- --
09:00 1.2 -0.5 -2.9 NNE 5.6 -- 9.3 74 1026.2(1.5/3h) 12 -- -- --
08:00 -0.8 -0.8 -3.3 NNE 3.7 -- 5.6 83 1025.9(1.6/3h) 8 -- -- --
07:00 -2.5 -4.7 -4.6 N 5.6 -- 9.3 85 1025.5(1.7/3h) 6 -- -- --
06:00 -2.4 -4.6 -4.8 N 5.6 -- 9.3 84 1024.7(1.3/3h) 7 -- -- --
05:00 -1.7 -1.7 -4.3 N 3.7 -- 5.6 82 1024.2(0.8/3h) 7 -- -- --
04:00 -1.8 -1.8 -3.9 N 3.7 -- 5.6 86 1023.7(0.6/3h) 6 -- -- --
03:00 -1.4 -3.5 -3.9 N 5.6 -- 5.6 83 1023.3(0.6/3h) 5 -- -- --
02:00 -0.1 -0.1 -3.5 N 3.7 -- 5.6 78 1023.2(1.0/3h) 6 -- -- --
01:00 0.4 0.4 -3.4 N 3.7 -- 3.7 76 1023(1.0/3h) 7 -- -- --
00:00 0.8 0.8 -3.3 NNO 1.9 -- 5.6 74 1022.7(1.1/3h) 6 -- -- --

1 Coordinated Universal Time. Actuellement il est 19:00 locale et 17:00 UTC.

2 Le vent souffle depuis la direction indiquée vers la direction oposée.

3 Les rafales max. sont disponible 40 min après l'heure du relevé.

4 Pour les stations d'altitude (plus de 600m) le géopotentiel du niveau le plus proche de la pression obligatoire est indiqué.

5 Les stations disposant d'un diffuseur peuvent indiquer "trace". Cela signifie que des précipitations ont touchés le sol mais que la quantité est inférieure à 0.1 mm.

Récapitulatif de la journée
Température [°C] Vent [km/h] Ensoleillement4 [h] Precipitations totale5 [mm] Pression [Hpa]
Min1 Max.2 Moy.3 Max. Min Max.
-2.7 7.0 0 20.4 0 h 0 min 0 1022.7 1027.2

1 Température minimale relevée entre 18:00 UTC la veille et 18:00 UTC le jour donné.

2 Température maximale relevée entre 06:00 UTC le jour donné et 06:00 UTC le lendemain.

3 Vent moyen de la journée basé sur les relevés horaires.

4 Ensoleillement en heures relevé entre 06:00 UTC la veille et 06:00 UTC le jour donné.

5 Précipitations totales tombées entre 06:00 UTC la jour donné et 06:00 UTC le lendemain.

Graphiques horaires